Time;durP1;ratioP1;P1;durP2;ratioP2;P2;SDS_P1;SDS_P2;PMS_P1;PMS_P2;Temp;Humidity;BMP_temperature;BMP_pressure;BME280_temperature;BME280_humidity;BME280_pressure;Samples;Min_cycle;Max_cycle;Signal;HPM_P1;HPM_P2
2022/05/10 00:02:17;;;;;;;0.90;0.90;;;23.40;34.90;;;25.32;29.45;101981.44;5033986;28;20222;-50
2022/05/10 00:04:50;;;;;;;1.13;1.03;;;23.40;34.90;;;25.29;29.48;101971.19;5033709;28;20191;-46
2022/05/10 00:07:21;;;;;;;0.87;0.87;;;23.40;34.90;;;25.30;29.80;101979.00;5033879;28;20762;-46
2022/05/10 00:09:49;;;;;;;0.90;0.90;;;23.30;34.80;;;25.31;29.72;101974.44;5033251;28;20240;-47
2022/05/10 00:12:16;;;;;;;1.10;1.00;;;23.40;35.00;;;25.30;29.57;101965.53;5046739;28;20206;-47
2022/05/10 00:14:45;;;;;;;0.80;0.80;;;23.30;34.90;;;25.31;29.62;101967.19;5044524;28;20205;-47
2022/05/10 00:17:24;;;;;;;0.90;0.90;;;23.30;35.00;;;25.26;29.65;101964.38;5042697;28;20555;-48
2022/05/10 00:19:52;;;;;;;0.90;0.90;;;23.30;34.90;;;25.31;29.76;101964.47;5053757;28;20189;-47
2022/05/10 00:22:20;;;;;;;0.90;0.90;;;23.30;35.00;;;25.29;30.23;101957.69;5053708;28;20651;-47
2022/05/10 00:24:47;;;;;;;1.30;1.10;;;23.30;35.00;;;25.29;29.85;101955.78;5053322;28;20193;-48
2022/05/10 00:27:14;;;;;;;0.90;0.90;;;23.30;35.00;;;25.27;30.07;101959.81;5046107;28;20233;-47
2022/05/10 00:29:42;;;;;;;0.70;0.70;;;23.30;35.00;;;25.28;29.85;101959.56;5034131;28;20202;-47
2022/05/10 00:32:11;;;;;;;0.97;0.97;;;23.30;35.00;;;25.29;29.71;101957.69;5033424;28;20245;-46
2022/05/10 00:34:38;;;;;;;0.70;0.70;;;23.30;35.10;;;25.29;30.14;101957.69;5033566;28;20191;-45
2022/05/10 00:37:08;;;;;;;1.10;1.10;;;23.30;35.00;;;25.28;30.13;101951.47;5049054;28;20633;-46
2022/05/10 00:39:35;;;;;;;0.80;0.80;;;23.30;35.10;;;25.29;30.26;101950.41;5053674;28;20194;-46
2022/05/10 00:42:12;;;;;;;0.80;0.80;;;23.30;35.10;;;25.30;30.43;101945.84;5053440;28;20190;-47
2022/05/10 00:44:49;;;;;;;0.97;0.97;;;23.30;35.10;;;25.27;29.82;101949.81;5043845;28;20202;-47
2022/05/10 00:47:26;;;;;;;0.90;0.90;;;23.30;35.10;;;25.27;30.40;101946.34;5033367;28;20667;-46
2022/05/10 00:50:01;;;;;;;0.90;0.90;;;23.30;35.10;;;25.26;29.83;101948.22;5033365;28;20186;-46
2022/05/10 00:52:47;;;;;;;0.90;0.90;;;23.30;35.10;;;25.22;29.79;101944.34;5045793;28;20224;-46
2022/05/10 00:55:21;;;;;;;1.03;0.90;;;23.30;35.20;;;25.27;29.76;101941.75;5040070;28;20199;-46
2022/05/10 00:57:56;;;;;;;0.73;0.73;;;23.30;35.20;;;25.26;30.23;101928.50;5033432;28;20182;-46
2022/05/10 01:00:27;;;;;;;0.80;0.80;;;23.30;35.10;;;25.26;29.78;101936.59;5046850;28;20198;-46
2022/05/10 01:03:09;;;;;;;0.90;0.90;;;23.40;35.20;;;25.22;30.36;101928.16;5051058;28;20204;-46
2022/05/10 01:05:44;;;;;;;0.80;0.80;;;23.30;35.20;;;25.25;29.94;101925.00;5052183;28;20218;-45
2022/05/10 01:08:21;;;;;;;0.93;0.93;;;23.30;35.10;;;25.23;30.50;101927.13;5052591;28;20572;-46
2022/05/10 01:10:57;;;;;;;0.70;0.70;;;23.30;35.10;;;25.23;29.86;101921.72;5052958;28;20581;-47
2022/05/10 01:13:31;;;;;;;1.37;1.27;;;23.30;35.20;;;25.24;30.31;101919.84;5053249;28;20568;-47
2022/05/10 01:16:09;;;;;;;0.70;0.70;;;23.30;35.10;;;25.22;29.98;101917.38;5050095;28;20210;-46
2022/05/10 01:18:40;;;;;;;0.80;0.80;;;23.30;35.20;;;25.23;30.14;101916.34;5048017;28;20628;-47
2022/05/10 01:21:32;;;;;;;1.17;1.07;;;23.30;35.20;;;25.19;29.78;101917.06;5053120;28;20189;-47
2022/05/10 01:24:57;;;;;;;0.80;0.80;;;23.30;35.30;;;25.15;29.95;101908.63;5056986;28;20198;-48
2022/05/10 01:27:42;;;;;;;0.80;0.80;;;23.30;35.30;;;25.17;30.53;101903.84;4976025;28;20200;-48
2022/05/10 01:30:15;;;;;;;0.90;0.90;;;23.30;35.90;;;25.21;30.12;101904.97;4975872;28;20204;-46
2022/05/10 01:35:45;;;;;;;0.90;0.90;;;23.30;35.30;;;25.20;30.31;101892.56;5052579;28;20770;-48
2022/05/10 01:38:29;;;;;;;0.90;0.90;;;23.30;35.30;;;25.17;30.26;101887.66;5056808;28;20197;-49
2022/05/10 01:41:09;;;;;;;0.80;0.80;;;23.30;35.40;;;25.19;30.49;101890.09;5056717;28;20201;-48
2022/05/10 01:43:45;;;;;;;0.87;0.87;;;23.30;35.40;;;25.21;29.76;101898.75;5056700;28;20201;-47
2022/05/10 01:46:22;;;;;;;1.00;1.00;;;23.30;35.40;;;25.19;30.48;101885.53;5056311;28;20538;-47
2022/05/10 01:48:57;;;;;;;0.77;0.77;;;23.30;35.50;;;25.22;30.63;101885.03;5055973;28;20221;-48
2022/05/10 01:51:33;;;;;;;0.83;0.83;;;23.30;35.50;;;25.21;30.01;101882.59;5054429;28;20205;-48
2022/05/10 01:54:01;;;;;;;0.83;0.83;;;23.30;35.50;;;25.22;29.95;101884.25;5047491;28;20194;-47
2022/05/10 01:56:30;;;;;;;1.00;1.00;;;23.30;35.50;;;25.22;30.15;101874.25;5055931;28;20709;-46
2022/05/10 01:58:57;;;;;;;0.97;0.97;;;23.30;35.50;;;25.22;29.95;101874.25;5056226;28;20220;-46
2022/05/10 02:01:33;;;;;;;0.90;0.90;;;23.30;35.50;;;25.19;30.35;101866.69;5055255;28;20197;-49
2022/05/10 02:04:08;;;;;;;0.80;0.80;;;23.30;35.60;;;25.19;30.04;101863.97;5055166;28;20547;-47
2022/05/10 02:06:45;;;;;;;0.93;0.93;;;23.30;35.60;;;25.19;30.21;101865.84;5053379;28;20286;-47
2022/05/10 02:09:23;;;;;;;0.90;0.90;;;23.30;35.60;;;25.19;30.35;101863.97;5053019;28;20233;-48
2022/05/10 02:12:00;;;;;;;0.93;0.93;;;23.30;35.60;;;25.18;30.37;101856.94;5056133;28;20206;-47
2022/05/10 02:14:34;;;;;;;0.83;0.83;;;23.30;35.60;;;25.20;30.69;101852.13;5056398;28;20190;-47
2022/05/10 02:17:10;;;;;;;1.00;1.00;;;23.30;35.60;;;25.18;30.83;101848.84;5055793;28;20218;-46
2022/05/10 02:19:48;;;;;;;0.80;0.80;;;23.30;35.60;;;25.17;30.72;101844.53;5055378;28;20239;-46
2022/05/10 02:22:24;;;;;;;0.83;0.83;;;23.30;35.60;;;25.21;30.21;101850.25;5045043;28;20606;-47
2022/05/10 02:24:57;;;;;;;0.90;0.90;;;23.30;35.60;;;25.21;30.13;101839.47;5038479;28;20205;-46
2022/05/10 02:27:35;;;;;;;1.00;1.00;;;23.30;35.60;;;25.18;30.79;101840.75;5035948;28;20191;-47
2022/05/10 02:30:07;;;;;;;0.80;0.80;;;23.20;35.60;;;25.21;30.75;101844.84;5055243;28;20202;-47
2022/05/10 02:35:28;;;;;;;1.10;1.00;;;23.20;35.60;;;25.18;30.11;101835.38;5049890;28;20236;-47
2022/05/10 02:37:55;;;;;;;0.90;0.90;;;23.20;35.50;;;25.20;30.82;101827.84;5046431;28;20654;-47
2022/05/10 02:40:22;;;;;;;0.93;0.93;;;23.20;35.50;;;25.19;30.85;101826.25;5036687;28;20198;-46
2022/05/10 02:42:50;;;;;;;0.87;0.87;;;23.20;35.60;;;25.20;30.69;101818.97;5038961;28;20542;-47
2022/05/10 02:45:20;;;;;;;0.90;0.90;;;23.20;35.70;;;25.19;30.79;101826.25;5055214;28;20205;-47
2022/05/10 02:47:49;;;;;;;0.90;0.90;;;23.20;35.70;;;25.19;30.34;101820.84;5055678;28;20194;-45
2022/05/10 02:50:24;;;;;;;0.70;0.70;;;23.20;35.80;;;25.17;30.45;101814.88;5055443;28;20255;-47
2022/05/10 02:52:52;;;;;;;0.77;0.77;;;23.20;35.70;;;25.18;30.40;101813.81;5054859;28;20208;-46
2022/05/10 02:55:31;;;;;;;0.80;0.80;;;23.20;35.70;;;25.18;30.08;101818.38;5054346;28;20216;-46
2022/05/10 02:58:06;;;;;;;1.10;1.10;;;23.20;35.70;;;25.18;30.13;101808.41;5053634;28;20201;-47
2022/05/10 03:00:34;;;;;;;0.70;0.70;;;23.20;35.70;;;25.17;30.33;101806.81;5054586;28;20193;-46
2022/05/10 03:03:13;;;;;;;0.90;0.90;;;23.20;35.80;;;25.15;30.62;101800.81;5050300;28;20190;-47
2022/05/10 03:05:40;;;;;;;1.10;1.00;;;23.20;35.70;;;25.18;30.32;101803.03;5034975;28;20213;-47
2022/05/10 03:08:08;;;;;;;0.67;0.67;;;23.20;35.80;;;25.18;30.86;101794.94;5036152;28;20191;-47
2022/05/10 03:10:35;;;;;;;1.07;1.00;;;23.20;35.70;;;25.18;30.54;101791.41;5034703;28;20198;-47
2022/05/10 03:13:02;;;;;;;0.80;0.80;;;23.20;35.80;;;25.18;30.93;101786.84;5047856;28;20213;-46
2022/05/10 03:15:29;;;;;;;0.70;0.70;;;23.20;35.80;;;25.18;30.51;101784.16;5054166;28;20236;-47
2022/05/10 03:17:58;;;;;;;0.90;0.90;;;23.20;35.70;;;25.17;30.38;101790.63;5069512;28;20611;-47
2022/05/10 03:20:26;;;;;;;0.80;0.80;;;23.20;35.80;;;25.18;30.41;101780.66;5074753;28;20197;-47
2022/05/10 03:22:54;;;;;;;0.87;0.87;;;23.20;35.80;;;25.17;30.40;101785.25;5065829;28;20204;-47
2022/05/10 03:25:22;;;;;;;0.90;0.90;;;23.20;35.80;;;25.17;30.58;101790.63;5054391;28;20225;-47
2022/05/10 03:27:49;;;;;;;0.77;0.77;;;23.20;35.80;;;25.19;30.82;101782.28;5054451;28;20234;-46
2022/05/10 03:30:17;;;;;;;0.97;0.97;;;23.20;35.80;;;25.17;30.61;101781.72;5051551;28;20677;-47
2022/05/10 03:32:45;;;;;;;1.07;1.07;;;23.20;35.90;;;25.17;30.36;101779.03;5054212;28;20218;-47
2022/05/10 03:35:15;;;;;;;0.90;0.90;;;23.20;35.90;;;25.18;30.42;101791.41;5054165;28;20193;-48
2022/05/10 03:37:44;;;;;;;1.47;1.10;;;23.20;36.00;;;25.18;30.70;101781.47;5054673;28;20190;-47
2022/05/10 03:40:13;;;;;;;0.90;0.90;;;23.20;36.10;;;25.18;30.95;101786.03;5052780;28;20190;-46
2022/05/10 03:42:45;;;;;;;0.80;0.80;;;23.20;36.00;;;25.16;30.89;101783.59;5054203;28;20646;-48
2022/05/10 03:45:14;;;;;;;1.00;1.00;;;23.20;36.00;;;25.14;30.92;101774.94;5050008;28;20186;-47
2022/05/10 03:47:42;;;;;;;0.87;0.87;;;23.20;36.00;;;25.16;30.88;101772.81;5054203;28;20194;-48
2022/05/10 03:50:10;;;;;;;1.00;1.00;;;23.20;36.10;;;25.17;30.79;101771.75;5054286;28;20209;-47
2022/05/10 03:52:40;;;;;;;1.00;1.00;;;23.20;36.00;;;25.17;31.07;101779.84;5053973;28;20217;-47
2022/05/10 03:55:14;;;;;;;1.00;0.97;;;23.20;36.10;;;25.16;30.87;101777.38;5048498;28;20191;-47
2022/05/10 03:57:42;;;;;;;0.90;0.90;;;23.20;36.20;;;25.17;31.02;101769.06;5036121;28;20202;-47
2022/05/10 04:00:14;;;;;;;0.80;0.80;;;23.20;36.10;;;25.17;30.57;101777.16;5054111;28;20224;-47
2022/05/10 04:02:43;;;;;;;0.80;0.80;;;23.20;36.10;;;25.16;31.07;101770.13;5051983;28;20229;-48
2022/05/10 04:05:13;;;;;;;1.10;1.00;;;23.20;36.20;;;25.16;31.07;101767.41;5037813;28;20194;-47
2022/05/10 04:07:41;;;;;;;0.97;0.97;;;23.20;36.20;;;25.16;30.85;101762.03;5034147;28;20547;-48
2022/05/10 04:10:12;;;;;;;1.03;1.03;;;23.20;36.20;;;25.14;31.30;101764.16;5033520;28;20194;-47
2022/05/10 04:12:41;;;;;;;0.80;0.80;;;23.20;36.30;;;25.16;30.70;101767.41;5050703;28;20694;-48
2022/05/10 04:15:14;;;;;;;0.90;0.90;;;23.20;36.30;;;25.14;30.69;101769.56;5042349;28;20199;-48
2022/05/10 04:17:45;;;;;;;1.10;1.10;;;23.20;36.30;;;25.15;31.11;101760.38;5046655;28;20206;-47
2022/05/10 04:20:14;;;;;;;0.80;0.80;;;23.20;36.30;;;25.16;31.21;101756.63;5051626;28;20193;-48
2022/05/10 04:22:42;;;;;;;1.00;1.00;;;23.20;36.40;;;25.18;31.20;101753.69;5054042;28;20186;-47
2022/05/10 04:25:23;;;;;;;1.00;1.00;;;23.20;36.40;;;25.16;30.84;101756.63;5053165;28;20259;-47
2022/05/10 04:27:52;;;;;;;1.20;1.17;;;23.20;36.30;;;25.16;31.42;101759.34;5051989;28;20677;-47
2022/05/10 04:30:20;;;;;;;0.80;0.80;;;23.20;36.30;;;25.15;31.47;101755.00;5053385;28;20197;-48
2022/05/10 04:32:49;;;;;;;0.90;0.90;;;23.20;36.40;;;25.17;31.08;101758.28;5051943;28;20609;-48
2022/05/10 04:35:16;;;;;;;0.77;0.77;;;23.20;36.50;;;25.15;30.86;101757.69;5053247;28;20233;-49
2022/05/10 04:37:43;;;;;;;0.83;0.83;;;23.20;36.50;;;25.17;30.81;101750.19;5040629;28;20198;-47
2022/05/10 04:42:59;;;;;;;1.00;1.00;;;23.20;36.60;;;25.14;30.77;101742.59;5034745;28;20190;-47
2022/05/10 04:45:27;;;;;;;1.00;1.00;;;23.20;36.50;;;25.14;30.90;101752.56;5048960;28;20230;-48
2022/05/10 04:47:54;;;;;;;0.90;0.90;;;23.20;36.60;;;25.14;30.83;101753.38;5047275;28;20651;-47
2022/05/10 04:50:22;;;;;;;0.77;0.77;;;23.20;36.60;;;25.16;30.84;101756.63;5033197;28;20198;-48
2022/05/10 04:52:49;;;;;;;0.83;0.83;;;23.20;36.60;;;25.16;31.43;101751.25;5048619;28;20205;-48
2022/05/10 04:55:18;;;;;;;0.80;0.80;;;23.20;36.60;;;25.15;30.99;101749.59;5050192;28;20289;-47
2022/05/10 04:57:46;;;;;;;0.80;0.80;;;23.20;36.60;;;25.16;31.02;101756.63;5052428;28;20198;-48
2022/05/10 05:00:16;;;;;;;0.80;0.80;;;23.20;36.70;;;25.17;30.87;101752.91;5051077;28;20201;-52
2022/05/10 05:02:46;;;;;;;1.07;1.07;;;23.20;36.60;;;25.15;30.80;101751.50;5052656;28;20558;-49
2022/05/10 05:05:14;;;;;;;1.10;1.10;;;23.20;36.60;;;25.16;30.93;101753.94;5050738;28;20190;-47
2022/05/10 05:07:41;;;;;;;0.90;0.90;;;23.20;36.70;;;25.18;31.23;101757.22;5052405;28;20202;-48
2022/05/10 05:10:10;;;;;;;0.90;0.90;;;23.20;36.70;;;25.18;31.24;101753.69;5049214;28;20216;-49
2022/05/10 05:12:37;;;;;;;0.80;0.80;;;23.20;36.70;;;25.18;31.48;101757.22;5032964;28;20225;-48
2022/05/10 05:15:09;;;;;;;1.00;1.00;;;23.20;36.60;;;25.17;31.00;101771.75;5033324;28;20698;-48
2022/05/10 05:17:38;;;;;;;0.90;0.90;;;23.20;36.70;;;25.16;30.99;101767.41;5044699;28;20212;-48
2022/05/10 05:20:07;;;;;;;0.90;0.90;;;23.20;36.70;;;25.16;31.33;101767.41;5052246;28;20271;-48
2022/05/10 05:22:35;;;;;;;1.20;1.10;;;23.20;36.60;;;25.16;30.77;101764.72;5032217;28;20211;-49
2022/05/10 05:25:04;;;;;;;0.83;0.83;;;23.20;36.60;;;25.15;31.22;101765.78;5032506;28;20202;-50
2022/05/10 05:27:33;;;;;;;1.03;1.03;;;23.20;36.60;;;25.17;30.85;101769.06;5036410;28;20190;-47
2022/05/10 05:30:01;;;;;;;0.80;0.80;;;23.20;36.60;;;25.18;31.03;101765.28;5045118;28;20689;-48
2022/05/10 05:32:34;;;;;;;0.93;0.93;;;23.20;36.50;;;25.17;30.69;101760.97;5038963;28;20691;-48
2022/05/10 05:35:04;;;;;;;0.80;0.80;;;23.20;36.50;;;25.17;30.89;101763.69;5032488;28;20206;-48
2022/05/10 05:37:32;;;;;;;0.90;0.90;;;23.20;36.50;;;25.18;31.31;101765.28;5038170;28;20197;-47
2022/05/10 05:40:01;;;;;;;1.00;1.00;;;23.20;36.60;;;25.18;30.86;101762.59;5052531;28;20202;-47
2022/05/10 05:42:29;;;;;;;0.90;0.90;;;23.20;36.60;;;25.18;31.17;101754.50;5052743;28;20193;-49
2022/05/10 05:44:57;;;;;;;0.90;0.90;;;23.20;36.50;;;25.18;30.80;101754.50;5050980;28;20193;-47
2022/05/10 05:47:25;;;;;;;1.00;1.00;;;23.20;36.60;;;25.19;31.48;101760.72;5046341;28;20191;-47
2022/05/10 05:49:53;;;;;;;0.83;0.83;;;23.20;36.60;;;25.20;31.06;101760.47;5032485;28;20190;-48
2022/05/10 05:52:22;;;;;;;1.20;1.20;;;23.20;36.50;;;25.17;31.36;101750.19;5043952;28;20209;-47
2022/05/10 05:54:50;;;;;;;0.83;0.83;;;23.20;36.50;;;25.17;30.97;101750.19;5051604;28;20217;-47
2022/05/10 05:57:19;;;;;;;1.07;1.07;;;23.20;37.20;;;25.19;30.75;101745.38;5052527;28;20224;-49
2022/05/10 05:59:46;;;;;;;0.87;0.87;;;23.20;36.60;;;25.18;31.09;101738.34;5051990;28;20201;-48
2022/05/10 06:02:18;;;;;;;0.90;0.90;;;23.20;36.50;;;25.19;31.19;101748.06;5041705;28;20198;-47
2022/05/10 06:04:45;;;;;;;0.80;0.80;;;23.20;36.50;;;25.20;31.36;101741.59;5032175;28;20218;-47
2022/05/10 06:07:13;;;;;;;1.30;1.30;;;23.20;36.50;;;25.20;30.85;101749.69;5041268;28;20218;-47
2022/05/10 06:09:44;;;;;;;1.10;1.10;;;23.20;36.50;;;25.21;31.25;101743.25;5053528;28;20268;-48
2022/05/10 06:12:16;;;;;;;0.87;0.87;;;23.20;36.60;;;25.21;30.78;101745.13;5038478;28;20253;-47
2022/05/10 06:14:44;;;;;;;0.90;0.90;;;23.20;36.50;;;25.21;30.87;101737.03;5047479;28;20571;-50
2022/05/10 06:17:13;;;;;;;0.90;0.90;;;23.20;36.50;;;25.20;30.66;101736.22;5042682;28;20223;-48
2022/05/10 06:19:43;;;;;;;0.90;0.90;;;23.20;36.60;;;25.20;30.87;101736.22;5050558;28;20210;-47
2022/05/10 06:22:12;;;;;;;0.90;0.90;;;23.20;36.50;;;25.20;31.19;101733.50;5043908;28;20194;-48
2022/05/10 06:24:40;;;;;;;1.00;1.00;;;23.20;37.20;;;25.23;31.01;101735.72;5042872;28;20194;-47
2022/05/10 06:27:16;;;;;;;1.00;1.00;;;23.20;36.50;;;25.20;30.76;101736.22;5036520;28;20225;-47
2022/05/10 06:29:44;;;;;;;1.40;1.00;;;23.20;36.50;;;25.23;31.24;101738.41;5044863;28;20224;-48
2022/05/10 06:32:18;;;;;;;0.97;0.97;;;23.20;37.20;;;25.23;31.48;101733.03;5053407;28;20204;-47
2022/05/10 06:34:46;;;;;;;0.90;0.90;;;23.20;36.60;;;25.26;30.61;101727.16;5038403;28;20214;-50
2022/05/10 06:40:03;;;;;;;1.10;1.10;;;23.20;36.60;;;25.22;31.10;101728.69;5053502;28;20174;-49
2022/05/10 06:42:32;;;;;;;0.90;0.90;;;23.30;36.70;;;25.24;30.90;101717.69;5054636;28;20670;-48
2022/05/10 06:44:59;;;;;;;0.90;0.90;;;23.20;36.60;;;25.26;30.83;101716.38;5052388;28;20642;-50
2022/05/10 06:47:27;;;;;;;0.87;0.87;;;23.30;36.70;;;25.25;31.27;101717.41;5036628;28;20198;-47
2022/05/10 06:49:54;;;;;;;1.00;1.00;;;23.30;36.70;;;25.26;31.21;101715.53;5033587;28;20190;-47
2022/05/10 06:52:29;;;;;;;0.90;0.90;;;23.30;36.70;;;25.24;30.98;101715.81;5050928;28;20186;-50
2022/05/10 06:54:59;;;;;;;1.00;1.00;;;23.30;36.80;;;25.26;31.15;101712.84;5053591;28;20262;-50
2022/05/10 06:57:27;;;;;;;1.03;1.03;;;23.30;36.80;;;25.25;31.55;101712.03;5047322;28;20265;-49
2022/05/10 06:59:56;;;;;;;0.80;0.80;;;23.30;36.80;;;25.25;31.43;101712.03;5049901;28;20202;-48
2022/05/10 07:02:24;;;;;;;1.83;1.00;;;23.30;36.80;;;25.25;31.33;101712.03;5039649;28;20700;-47
2022/05/10 07:04:52;;;;;;;1.50;1.00;;;23.30;36.80;;;25.27;31.05;101706.41;5046997;28;20190;-50
2022/05/10 07:07:19;;;;;;;1.00;1.00;;;23.30;36.80;;;25.28;31.45;101710.72;5054120;28;20686;-48
2022/05/10 07:09:47;;;;;;;1.03;1.03;;;23.30;36.90;;;25.27;30.89;101706.41;5049292;28;20221;-49
2022/05/10 07:12:14;;;;;;;1.03;1.03;;;23.30;36.90;;;25.27;31.04;101709.91;5038704;28;20194;-47
2022/05/10 07:14:45;;;;;;;1.13;1.13;;;23.30;36.90;;;25.28;30.97;101708.03;5039124;28;20220;-50
2022/05/10 07:17:14;;;;;;;0.77;0.77;;;23.30;37.00;;;25.29;31.32;101712.38;5049792;28;20209;-47
2022/05/10 07:19:41;;;;;;;0.93;0.93;;;23.30;36.90;;;25.27;31.08;101707.19;5053655;28;20198;-47
2022/05/10 07:22:10;;;;;;;1.00;1.00;;;23.30;36.90;;;25.30;31.41;101703.19;5050527;28;20617;-47
2022/05/10 07:24:37;;;;;;;0.97;0.97;;;23.30;36.90;;;25.30;31.41;101706.72;5050859;28;20647;-48
2022/05/10 07:27:09;;;;;;;1.50;1.40;;;23.30;36.90;;;25.29;31.44;101702.38;5036510;28;20214;-51
2022/05/10 07:29:39;;;;;;;0.83;0.83;;;23.30;36.90;;;25.30;31.44;101701.31;5041752;28;20201;-46
2022/05/10 07:32:08;;;;;;;0.77;0.77;;;23.30;36.90;;;25.30;30.94;101692.41;5039940;28;20187;-47
2022/05/10 07:34:37;;;;;;;1.33;1.23;;;23.30;36.90;;;25.30;31.42;101693.22;5036690;28;20241;-49
2022/05/10 07:37:04;;;;;;;0.80;0.80;;;23.40;36.90;;;25.32;31.52;101691.09;5033473;28;20280;-48
2022/05/10 07:39:31;;;;;;;1.10;1.10;;;23.30;36.80;;;25.32;31.11;101696.50;5040332;28;20285;-47
2022/05/10 07:42:01;;;;;;;1.00;1.00;;;23.30;36.90;;;25.33;31.26;101698.13;5040588;28;20205;-49
2022/05/10 07:44:28;;;;;;;1.00;1.00;;;23.30;36.80;;;25.34;31.50;101698.97;5045368;28;20198;-46
2022/05/10 07:46:56;;;;;;;3.03;1.10;;;23.30;36.90;;;25.35;30.71;101692.47;5042854;28;20218;-45
2022/05/10 07:49:23;;;;;;;3.97;1.43;;;23.30;36.80;;;25.33;31.36;101692.75;5043294;28;20189;-48
2022/05/10 07:51:53;;;;;;;2.87;1.10;;;23.30;36.90;;;25.35;31.00;101690.59;5043994;28;20210;-51
2022/05/10 07:54:20;;;;;;;2.83;1.00;;;23.40;36.90;;;25.35;30.94;101690.59;5042087;28;20226;-48
2022/05/10 07:56:47;;;;;;;2.03;0.90;;;23.40;36.90;;;25.34;30.92;101694.34;5040123;28;20214;-48
2022/05/10 07:59:15;;;;;;;1.53;0.80;;;23.40;36.90;;;25.36;30.93;101681.47;5045027;28;20186;-47
2022/05/10 08:01:42;;;;;;;1.00;1.00;;;23.40;36.90;;;25.37;31.01;101685.78;5040132;28;20203;-48
2022/05/10 08:04:10;;;;;;;1.00;0.93;;;23.40;36.90;;;25.38;31.54;101686.59;5027125;28;20705;-49
2022/05/10 08:06:37;;;;;;;0.90;0.90;;;23.40;36.90;;;25.38;31.05;101679.34;5037881;28;20255;-48
2022/05/10 08:09:06;;;;;;;1.07;1.00;;;23.40;37.00;;;25.37;31.53;101677.69;5043656;28;20300;-48
2022/05/10 08:11:33;;;;;;;1.30;1.20;;;23.40;37.00;;;25.39;31.29;101677.44;5042378;28;20205;-48
2022/05/10 08:14:03;;;;;;;1.00;1.00;;;23.40;37.00;;;25.38;31.19;101671.25;5047664;28;20217;-48
2022/05/10 08:16:32;;;;;;;1.23;1.20;;;23.40;37.00;;;25.41;31.58;101676.13;5042652;28;20214;-48
2022/05/10 08:19:00;;;;;;;1.53;0.90;;;23.40;37.00;;;25.40;31.08;101671.81;5047432;28;20196;-47
2022/05/10 08:21:28;;;;;;;1.33;1.00;;;23.40;37.10;;;25.40;31.12;101671.81;5042220;28;20195;-47
2022/05/10 08:23:55;;;;;;;1.40;0.97;;;23.40;37.10;;;25.40;31.52;101665.59;5044846;28;20559;-48
2022/05/10 08:26:24;;;;;;;1.07;1.07;;;23.40;37.10;;;25.41;31.37;101667.25;5044228;28;20647;-49
2022/05/10 08:28:56;;;;;;;0.87;0.87;;;23.40;37.10;;;25.43;31.08;101671.31;5045938;28;20190;-48
2022/05/10 08:31:26;;;;;;;1.30;1.20;;;23.40;37.80;;;25.43;31.45;101665.91;5040985;28;20202;-48
2022/05/10 08:33:53;;;;;;;1.33;1.23;;;23.40;37.20;;;25.42;31.00;101658.88;5045588;28;20197;-49
2022/05/10 08:36:22;;;;;;;1.83;1.07;;;23.40;37.20;;;25.44;31.70;101662.19;5040702;28;20218;-47
2022/05/10 08:38:49;;;;;;;2.40;1.37;;;23.40;37.30;;;25.46;31.77;101659.22;5040827;28;20198;-48
2022/05/10 08:41:27;;;;;;;1.60;1.50;;;23.40;37.30;;;25.42;31.95;101653.50;5041749;28;20190;-48
2022/05/10 08:44:03;;;;;;;1.17;1.10;;;23.40;37.40;;;25.44;31.97;101656.78;5042912;28;20590;-49
2022/05/10 08:46:38;;;;;;;1.30;1.20;;;23.50;37.50;;;25.45;31.26;101653.03;5041040;28;20686;-47
2022/05/10 08:49:14;;;;;;;1.10;1.10;;;23.50;37.50;;;25.44;31.26;101656.78;5044978;28;20185;-48
2022/05/10 08:51:42;;;;;;;0.93;0.93;;;23.50;37.50;;;25.46;31.83;101654.66;5045637;28;20206;-48
2022/05/10 08:54:10;;;;;;;1.17;0.90;;;23.50;37.50;;;25.46;31.89;101649.25;5039657;28;20690;-47
2022/05/10 08:56:46;;;;;;;1.83;1.40;;;23.50;37.50;;;25.46;31.25;101651.94;5033035;28;20272;-50
2022/05/10 08:59:36;;;;;;;2.00;1.10;;;23.50;37.60;;;25.43;31.76;101644.34;5043386;28;20201;-51
2022/05/10 09:02:09;;;;;;;2.73;1.43;;;23.50;37.70;;;25.47;31.26;101637.41;5045516;28;20198;-50
2022/05/10 09:04:48;;;;;;;2.30;0.90;;;23.50;37.60;;;25.48;32.10;101641.72;5049942;28;20353;-47
2022/05/10 09:07:35;;;;;;;1.60;1.10;;;23.50;37.70;;;25.45;32.06;101636.84;5045396;28;20202;-50
2022/05/10 09:10:08;;;;;;;2.20;1.30;;;23.50;37.70;;;25.50;31.47;101634.22;5031760;28;20241;-47
2022/05/10 09:12:46;;;;;;;1.77;0.93;;;23.50;37.70;;;25.49;31.71;101627.19;5032326;28;20194;-47
2022/05/10 09:15:15;;;;;;;1.20;1.10;;;23.50;37.70;;;25.51;32.16;101630.44;5032617;28;20677;-48
2022/05/10 09:17:42;;;;;;;1.47;1.30;;;23.50;37.70;;;25.53;31.52;101617.50;5044744;28;20198;-48
2022/05/10 09:20:12;;;;;;;4.23;1.20;;;23.50;37.70;;;25.55;31.77;101620.78;5051828;28;20190;-48
2022/05/10 09:23:19;;;;;;;5.83;1.43;;;23.50;37.70;;;25.50;31.43;101620.75;5052723;28;20259;-48
2022/05/10 09:25:48;;;;;;;2.00;1.00;;;23.50;37.80;;;25.57;31.61;101614.31;5037782;28;20217;-48
2022/05/10 09:28:33;;;;;;;5.73;1.10;;;23.60;37.80;;;25.54;32.18;101613.75;5051461;28;20820;-48
2022/05/10 09:34:49;;;;;;;5.33;1.30;;;23.60;38.00;;;25.55;32.05;101604.59;5048777;28;20209;-47
2022/05/10 09:37:24;;;;;;;1.10;1.00;;;23.60;37.90;;;25.55;32.01;101604.59;5051818;28;20279;-48
2022/05/10 09:40:23;;;;;;;1.23;1.13;;;23.60;37.90;;;25.52;32.07;101591.63;5041660;28;20240;-47
2022/05/10 09:42:54;;;;;;;1.83;1.40;;;23.60;38.20;;;25.58;31.54;101587.09;5047323;28;20224;-47
2022/05/10 09:45:26;;;;;;;2.70;1.40;;;23.60;38.00;;;25.60;31.50;101584.97;5055888;28;20233;-47
2022/05/10 09:47:58;;;;;;;2.17;1.70;;;23.60;38.00;;;25.63;32.28;101589.84;5048396;28;20285;-47
2022/05/10 09:50:32;;;;;;;0.90;0.90;;;23.60;38.00;;;25.60;31.67;101579.59;5050371;28;20650;-48
2022/05/10 09:53:20;;;;;;;1.93;1.20;;;23.60;38.00;;;25.59;31.87;101582.53;5050175;28;20189;-47
2022/05/10 09:55:58;;;;;;;3.03;1.40;;;23.70;38.10;;;25.61;31.54;101578.50;5055600;28;20234;-49
2022/05/10 09:58:30;;;;;;;1.93;1.50;;;23.60;37.90;;;25.64;31.88;101591.50;5052302;28;20193;-47
2022/05/10 10:01:02;;;;;;;1.63;1.20;;;23.60;37.90;;;25.64;31.55;101574.47;5055125;28;20206;-47
2022/05/10 10:03:33;;;;;;;1.20;1.10;;;23.60;37.90;;;25.67;32.02;101579.38;5055760;28;20212;-46
2022/05/10 10:06:17;;;;;;;1.80;1.37;;;23.70;37.90;;;25.62;31.74;101574.75;5051234;28;20228;-48
2022/05/10 10:08:50;;;;;;;1.40;1.30;;;23.70;37.90;;;25.67;31.38;101568.59;5041726;28;20667;-47
2022/05/10 10:11:28;;;;;;;1.67;1.53;;;23.70;37.80;;;25.64;32.02;101564.53;5035578;28;20214;-48
2022/05/10 10:13:59;;;;;;;1.00;1.00;;;23.70;37.90;;;25.68;31.63;101560.22;5037182;28;20546;-48
2022/05/10 10:16:34;;;;;;;1.33;1.20;;;23.70;37.90;;;25.67;31.45;101563.19;5036123;28;20645;-49
2022/05/10 10:19:09;;;;;;;1.47;1.20;;;23.70;37.90;;;25.71;31.56;101561.63;5047649;28;20527;-48
2022/05/10 10:21:45;;;;;;;2.70;1.00;;;23.70;37.90;;;25.70;31.84;101547.31;5039691;28;20681;-48
2022/05/10 10:24:24;;;;;;;2.37;1.63;;;23.70;37.80;;;25.69;31.63;101548.38;5035773;28;20711;-48
2022/05/10 10:27:02;;;;;;;2.63;1.30;;;23.70;37.90;;;25.72;31.61;101547.06;5036644;28;20260;-48
2022/05/10 10:29:44;;;;;;;2.20;1.40;;;23.70;37.90;;;25.73;31.91;101541.41;5036284;28;20202;-48
2022/05/10 10:32:20;;;;;;;2.90;1.60;;;23.70;37.80;;;25.73;31.65;101530.63;5041689;28;20560;-48
2022/05/10 10:34:55;;;;;;;2.67;1.50;;;23.70;37.90;;;25.75;32.12;101530.34;5043416;28;20214;-47
2022/05/10 10:37:32;;;;;;;2.57;1.30;;;23.70;37.90;;;25.75;31.55;101527.66;5048177;28;20202;-48
2022/05/10 10:40:18;;;;;;;1.50;1.40;;;23.70;37.90;;;25.74;31.99;101521.47;5036812;28;20512;-49
2022/05/10 10:42:54;;;;;;;3.47;1.40;;;23.70;37.90;;;25.76;31.60;101518.50;5051415;28;20315;-48
2022/05/10 10:45:34;;;;;;;3.77;1.63;;;23.80;37.90;;;25.75;32.02;101517.69;5049957;28;20645;-47
2022/05/10 10:48:23;;;;;;;4.03;1.50;;;23.70;37.80;;;25.74;32.18;101509.84;5044906;28;20258;-48